Time,TemperatureF,DewpointF,PressureIn,WindDirection,WindDirectionDegrees,WindSpeedMPH,WindSpeedGustMPH,Humidity,HourlyPrecipIn,Conditions,Clouds,dailyrainin,SolarRadiationWatts/m^2,SoftwareType,DateUTC
2013-01-25 00:00:00,-8.0,-13.0,30.59,WNW,283,0.0,1.0,80,0.00,,,0.00,0,weatherlink.com 1.10,2013-01-25 05:00:00,
2013-01-25 00:15:00,-7.8,-12.0,30.59,WNW,283,0.0,2.0,80,0.00,,,0.00,0,weatherlink.com 1.10,2013-01-25 05:15:00,
2013-01-25 00:30:00,-7.3,-12.0,30.59,WNW,283,0.0,0.0,80,0.00,,,0.00,0,weatherlink.com 1.10,2013-01-25 05:30:00,
2013-01-25 00:45:00,-7.1,-12.0,30.58,WNW,283,0.0,0.0,80,0.00,,,0.00,0,weatherlink.com 1.10,2013-01-25 05:45:00,
2013-01-25 01:00:00,-6.7,-11.0,30.57,WNW,283,0.0,1.0,80,0.00,,,0.00,0,weatherlink.com 1.10,2013-01-25 06:00:00,
2013-01-25 01:15:00,-6.0,-11.0,30.57,WNW,283,1.0,2.0,80,0.00,,,0.00,0,weatherlink.com 1.10,2013-01-25 06:15:00,
2013-01-25 01:30:00,-5.2,-10.0,30.55,WNW,283,0.0,0.0,80,0.00,,,0.00,0,weatherlink.com 1.10,2013-01-25 06:30:00,
2013-01-25 01:45:00,-4.8,-10.0,30.55,WNW,283,0.0,0.0,80,0.00,,,0.00,0,weatherlink.com 1.10,2013-01-25 06:45:00,
2013-01-25 02:00:00,-4.5,-9.0,30.54,WNW,283,0.0,1.0,80,0.00,,,0.00,0,weatherlink.com 1.10,2013-01-25 07:00:00,
2013-01-25 02:15:00,-4.3,-9.0,30.53,WNW,283,0.0,0.0,80,0.00,,,0.00,0,weatherlink.com 1.10,2013-01-25 07:15:00,
2013-01-25 02:31:00,-3.9,-9.0,30.53,WNW,283,0.0,0.0,80,0.00,,,0.00,0,weatherlink.com 1.10,2013-01-25 07:31:00,
2013-01-25 02:46:00,-3.2,-8.0,30.52,WNW,283,0.0,0.0,80,0.00,,,0.00,0,weatherlink.com 1.10,2013-01-25 07:46:00,
2013-01-25 03:01:00,-2.6,-7.0,30.52,WNW,283,0.0,0.0,81,0.00,,,0.00,0,weatherlink.com 1.10,2013-01-25 08:01:00,
2013-01-25 03:16:00,-2.3,-7.0,30.51,WNW,283,0.0,2.0,81,0.00,,,0.00,0,weatherlink.com 1.10,2013-01-25 08:16:00,
2013-01-25 03:31:00,-1.9,-6.0,30.50,WNW,283,1.0,1.0,81,0.00,,,0.00,0,weatherlink.com 1.10,2013-01-25 08:31:00,
2013-01-25 03:47:00,-2.1,-7.0,30.49,WNW,283,0.0,1.0,81,0.00,,,0.00,0,weatherlink.com 1.10,2013-01-25 08:47:00,
2013-01-25 04:01:00,-1.6,-6.0,30.48,WNW,283,0.0,1.0,81,0.00,,,0.00,0,weatherlink.com 1.10,2013-01-25 09:01:00,
2013-01-25 04:16:00,-1.6,-6.0,30.48,WNW,283,0.0,2.0,81,0.00,,,0.00,0,weatherlink.com 1.10,2013-01-25 09:16:00,
2013-01-25 04:31:00,-1.5,-6.0,30.47,WNW,283,0.0,1.0,81,0.00,,,0.00,0,weatherlink.com 1.10,2013-01-25 09:31:00,
2013-01-25 04:46:00,0.9,-3.0,30.46,WNW,283,0.0,4.0,83,0.00,,,0.00,0,weatherlink.com 1.10,2013-01-25 09:46:00,
2013-01-25 05:01:00,3.3,-1.0,30.45,East,86,3.0,5.0,84,0.00,,,0.00,0,weatherlink.com 1.10,2013-01-25 10:01:00,
2013-01-25 05:16:00,2.6,-1.0,30.44,ENE,74,0.0,3.0,84,0.00,,,0.00,0,weatherlink.com 1.10,2013-01-25 10:16:00,
2013-01-25 05:31:00,2.2,-2.0,30.43,ENE,74,0.0,2.0,84,0.00,,,0.00,0,weatherlink.com 1.10,2013-01-25 10:31:00,
2013-01-25 05:46:00,2.5,-1.0,30.43,ENE,74,0.0,2.0,84,0.00,,,0.00,0,weatherlink.com 1.10,2013-01-25 10:46:00,
2013-01-25 06:02:00,3.0,-1.0,30.42,ENE,74,0.0,1.0,84,0.00,,,0.00,0,weatherlink.com 1.10,2013-01-25 11:02:00,
2013-01-25 06:17:00,3.5,0.0,30.41,ENE,74,0.0,2.0,84,0.00,,,0.00,0,weatherlink.com 1.10,2013-01-25 11:17:00,
2013-01-25 06:32:00,4.0,1.0,30.40,ENE,74,1.0,4.0,85,0.00,,,0.00,0,weatherlink.com 1.10,2013-01-25 11:32:00,
2013-01-25 06:47:00,4.9,1.0,30.39,East,91,5.0,5.0,85,0.00,,,0.00,0,weatherlink.com 1.10,2013-01-25 11:47:00,
2013-01-25 07:02:00,5.3,2.0,30.38,East,96,1.0,5.0,85,0.00,,,0.00,0,weatherlink.com 1.10,2013-01-25 12:02:00,
2013-01-25 07:17:00,5.3,2.0,30.37,ENE,77,0.0,5.0,85,0.00,,,0.00,0,weatherlink.com 1.10,2013-01-25 12:17:00,
2013-01-25 07:32:00,5.4,2.0,30.36,ENE,72,2.0,5.0,85,0.00,,,0.00,0,weatherlink.com 1.10,2013-01-25 12:32:00,
2013-01-25 07:47:00,5.8,2.0,30.36,East,88,1.0,6.0,85,0.00,,,0.00,0,weatherlink.com 1.10,2013-01-25 12:47:00,
2013-01-25 08:02:00,6.1,3.0,30.34,ENE,69,1.0,7.0,85,0.00,,,0.00,0,weatherlink.com 1.10,2013-01-25 13:02:00,
2013-01-25 08:17:00,6.1,3.0,30.35,ENE,57,0.0,7.0,85,0.00,,,0.00,5,weatherlink.com 1.10,2013-01-25 13:17:00,
2013-01-25 08:32:00,6.3,3.0,30.35,East,98,2.0,5.0,85,0.00,,,0.00,16,weatherlink.com 1.10,2013-01-25 13:32:00,
2013-01-25 08:47:00,6.4,3.0,30.34,East,94,0.0,7.0,85,0.00,,,0.00,32,weatherlink.com 1.10,2013-01-25 13:47:00,
2013-01-25 09:02:00,6.7,3.0,30.34,East,92,3.0,8.0,85,0.00,,,0.00,49,weatherlink.com 1.10,2013-01-25 14:02:00,
2013-01-25 09:18:00,6.8,3.0,30.33,ESE,111,3.0,8.0,84,0.00,,,0.00,65,weatherlink.com 1.10,2013-01-25 14:18:00,
2013-01-25 09:33:00,7.1,3.0,30.32,ESE,103,2.0,10.0,84,0.00,,,0.00,67,weatherlink.com 1.10,2013-01-25 14:33:00,
2013-01-25 09:48:00,7.3,4.0,30.32,ESE,111,5.0,7.0,84,0.00,,,0.00,88,weatherlink.com 1.10,2013-01-25 14:48:00,
2013-01-25 10:03:00,7.9,4.0,30.32,East,94,0.0,8.0,84,0.00,,,0.00,116,weatherlink.com 1.10,2013-01-25 15:03:00,
2013-01-25 10:18:00,8.6,5.0,30.31,East,86,2.0,8.0,84,0.00,,,0.00,127,weatherlink.com 1.10,2013-01-25 15:18:00,
2013-01-25 10:33:00,9.1,5.0,30.30,ENE,77,4.0,8.0,84,0.00,,,0.00,141,weatherlink.com 1.10,2013-01-25 15:33:00,
2013-01-25 10:48:00,9.7,6.0,30.30,ENE,70,2.0,7.0,84,0.00,,,0.00,160,weatherlink.com 1.10,2013-01-25 15:48:00,
2013-01-25 11:03:00,10.4,7.0,30.30,ENE,68,4.0,5.0,84,0.00,,,0.00,163,weatherlink.com 1.10,2013-01-25 16:03:00,
2013-01-25 11:18:00,10.5,7.0,30.28,ENE,76,4.0,7.0,84,0.00,,,0.00,188,weatherlink.com 1.10,2013-01-25 16:18:00,
2013-01-25 11:33:00,10.8,7.0,30.27,ENE,63,3.0,9.0,84,0.00,,,0.00,193,weatherlink.com 1.10,2013-01-25 16:33:00,
2013-01-25 11:48:00,11.7,8.0,30.26,East,93,2.0,6.0,84,0.00,,,0.00,195,weatherlink.com 1.10,2013-01-25 16:48:00,
2013-01-25 12:03:00,11.8,8.0,30.24,ENE,76,7.0,10.0,83,0.00,,,0.00,213,weatherlink.com 1.10,2013-01-25 17:03:00,
2013-01-25 12:18:00,12.3,8.0,30.24,ENE,74,2.0,10.0,83,0.00,,,0.00,204,weatherlink.com 1.10,2013-01-25 17:18:00,
2013-01-25 12:34:00,12.9,9.0,30.23,ENE,77,2.0,8.0,84,0.00,,,0.00,237,weatherlink.com 1.10,2013-01-25 17:34:00,
2013-01-25 12:49:00,13.5,10.0,30.21,NE,35,2.0,8.0,84,0.00,,,0.00,251,weatherlink.com 1.10,2013-01-25 17:49:00,
2013-01-25 13:04:00,14.0,10.0,30.20,ESE,110,2.0,9.0,83,0.00,,,0.00,237,weatherlink.com 1.10,2013-01-25 18:04:00,
2013-01-25 13:19:00,15.0,11.0,30.19,ENE,67,3.0,9.0,84,0.00,,,0.00,357,weatherlink.com 1.10,2013-01-25 18:19:00,
2013-01-25 13:34:00,15.5,12.0,30.18,East,92,2.0,9.0,85,0.00,,,0.00,276,weatherlink.com 1.10,2013-01-25 18:34:00,
2013-01-25 13:49:00,16.2,13.0,30.17,East,82,2.0,7.0,85,0.00,,,0.00,229,weatherlink.com 1.10,2013-01-25 18:49:00,
2013-01-25 14:04:00,16.5,13.0,30.16,ENE,63,5.0,7.0,84,0.00,,,0.00,230,weatherlink.com 1.10,2013-01-25 19:04:00,
2013-01-25 14:19:00,17.5,14.0,30.16,ESE,122,1.0,8.0,84,0.00,,,0.00,304,weatherlink.com 1.10,2013-01-25 19:19:00,
2013-01-25 14:49:00,18.3,13.0,30.14,East,99,2.0,7.0,81,0.00,,,0.00,279,weatherlink.com 1.10,2013-01-25 19:49:00,
2013-01-25 15:04:00,17.8,13.0,30.14,SE,146,2.0,8.0,82,0.00,,,0.00,206,weatherlink.com 1.10,2013-01-25 20:04:00,
2013-01-25 15:19:00,17.6,13.0,30.14,ESE,117,2.0,6.0,82,0.00,,,0.00,171,weatherlink.com 1.10,2013-01-25 20:19:00,
2013-01-25 15:34:00,17.1,13.0,30.14,SE,130,2.0,6.0,83,0.00,,,0.00,135,weatherlink.com 1.10,2013-01-25 20:34:00,
2013-01-25 15:49:00,16.8,13.0,30.14,ENE,69,2.0,6.0,83,0.00,,,0.00,114,weatherlink.com 1.10,2013-01-25 20:49:00,
2013-01-25 16:04:00,17.1,13.0,30.13,SE,146,0.0,5.0,83,0.00,,,0.00,102,weatherlink.com 1.10,2013-01-25 21:04:00,
2013-01-25 16:20:00,17.2,13.0,30.13,SE,136,4.0,8.0,84,0.00,,,0.00,121,weatherlink.com 1.10,2013-01-25 21:20:00,
2013-01-25 16:35:00,17.3,13.0,30.13,ESE,119,3.0,5.0,83,0.00,,,0.00,49,weatherlink.com 1.10,2013-01-25 21:35:00,
2013-01-25 16:50:00,17.0,13.0,30.13,SE,136,0.0,4.0,84,0.00,,,0.00,28,weatherlink.com 1.10,2013-01-25 21:50:00,
2013-01-25 17:05:00,16.6,13.0,30.13,East,83,0.0,4.0,84,0.00,,,0.00,18,weatherlink.com 1.10,2013-01-25 22:05:00,
2013-01-25 17:20:00,16.1,12.0,30.14,East,100,1.0,5.0,85,0.00,,,0.00,7,weatherlink.com 1.10,2013-01-25 22:20:00,
2013-01-25 17:35:00,15.6,12.0,30.14,ENE,76,0.0,7.0,86,0.00,,,0.00,0,weatherlink.com 1.10,2013-01-25 22:35:00,
2013-01-25 17:50:00,15.1,12.0,30.14,ESE,121,1.0,7.0,86,0.00,,,0.00,0,weatherlink.com 1.10,2013-01-25 22:50:00,
2013-01-25 18:05:00,14.5,11.0,30.14,East,95,1.0,2.0,86,0.00,,,0.00,0,weatherlink.com 1.10,2013-01-25 23:05:00,
2013-01-25 18:20:00,13.9,11.0,30.14,ESE,111,0.0,2.0,86,0.00,,,0.00,0,weatherlink.com 1.10,2013-01-25 23:20:00,
2013-01-25 18:35:00,13.6,11.0,30.15,East,83,0.0,3.0,87,0.00,,,0.00,0,weatherlink.com 1.10,2013-01-25 23:35:00,
2013-01-25 18:50:00,13.8,11.0,30.15,ENE,64,2.0,4.0,87,0.00,,,0.00,0,weatherlink.com 1.10,2013-01-25 23:50:00,
2013-01-25 19:05:00,14.1,11.0,30.15,SE,129,3.0,6.0,87,0.00,,,0.00,0,weatherlink.com 1.10,2013-01-26 00:05:00,
2013-01-25 19:20:00,14.1,11.0,30.15,ENE,75,0.0,4.0,87,0.00,,,0.00,0,weatherlink.com 1.10,2013-01-26 00:20:00,
2013-01-25 19:35:00,14.0,11.0,30.15,ENE,61,1.0,4.0,87,0.00,,,0.00,0,weatherlink.com 1.10,2013-01-26 00:35:00,
2013-01-25 19:51:00,14.1,11.0,30.15,East,87,2.0,6.0,87,0.00,,,0.00,0,weatherlink.com 1.10,2013-01-26 00:51:00,
2013-01-25 20:06:00,14.2,11.0,30.15,ENE,68,3.0,5.0,87,0.00,,,0.00,0,weatherlink.com 1.10,2013-01-26 01:06:00,
2013-01-25 20:21:00,14.1,11.0,30.15,East,86,0.0,7.0,87,0.00,,,0.00,0,weatherlink.com 1.10,2013-01-26 01:21:00,
2013-01-25 20:36:00,14.0,11.0,30.15,ENE,77,1.0,7.0,87,0.00,,,0.00,0,weatherlink.com 1.10,2013-01-26 01:36:00,
2013-01-25 20:51:00,14.0,11.0,30.15,ESE,109,2.0,5.0,87,0.00,,,0.00,0,weatherlink.com 1.10,2013-01-26 01:51:00,
2013-01-25 21:06:00,14.0,11.0,30.15,ESE,107,1.0,4.0,87,0.00,,,0.00,0,weatherlink.com 1.10,2013-01-26 02:06:00,
2013-01-25 21:21:00,13.9,11.0,30.15,ESE,113,2.0,7.0,87,0.00,,,0.00,0,weatherlink.com 1.10,2013-01-26 02:21:00,
2013-01-25 21:36:00,13.7,11.0,30.15,ESE,105,0.0,7.0,87,0.00,,,0.00,0,weatherlink.com 1.10,2013-01-26 02:36:00,
2013-01-25 21:51:00,13.2,10.0,30.14,ENE,68,3.0,6.0,87,0.00,,,0.00,0,weatherlink.com 1.10,2013-01-26 02:51:00,
2013-01-25 22:06:00,12.9,10.0,30.15,SE,140,0.0,5.0,87,0.00,,,0.00,0,weatherlink.com 1.10,2013-01-26 03:06:00,
2013-01-25 22:21:00,12.8,10.0,30.14,East,85,0.0,4.0,87,0.00,,,0.00,0,weatherlink.com 1.10,2013-01-26 03:21:00,
2013-01-25 22:36:00,12.8,10.0,30.15,ENE,70,2.0,4.0,87,0.00,,,0.00,0,weatherlink.com 1.10,2013-01-26 03:36:00,
2013-01-25 22:51:00,12.7,10.0,30.15,East,91,0.0,5.0,87,0.00,,,0.00,0,weatherlink.com 1.10,2013-01-26 03:51:00,
2013-01-25 23:06:00,12.7,10.0,30.16,East,79,1.0,4.0,87,0.00,,,0.00,0,weatherlink.com 1.10,2013-01-26 04:06:00,
2013-01-25 23:22:00,12.6,10.0,30.16,East,98,0.0,4.0,87,0.00,,,0.00,0,weatherlink.com 1.10,2013-01-26 04:22:00,
2013-01-25 23:37:00,12.6,10.0,30.16,ENE,58,4.0,4.0,87,0.00,,,0.00,0,weatherlink.com 1.10,2013-01-26 04:37:00,
2013-01-25 23:52:00,12.6,10.0,30.16,ENE,78,0.0,5.0,87,0.00,,,0.00,0,weatherlink.com 1.10,2013-01-26 04:52:00,